createdAt,value
2022-08-18T00:02:17.864Z,99634.50
2022-08-18T00:04:48.889Z,99635.22
2022-08-18T00:07:19.527Z,99634.38
2022-08-18T00:09:47.774Z,99637.06
2022-08-18T00:12:17.954Z,99629.69
2022-08-18T00:14:45.533Z,99634.44
2022-08-18T00:17:15.115Z,99631.00
2022-08-18T00:19:46.803Z,99637.31
2022-08-18T00:22:21.169Z,99644.59
2022-08-18T00:24:50.412Z,99640.97
2022-08-18T00:27:21.674Z,99636.63
2022-08-18T00:29:50.845Z,99639.72
2022-08-18T00:32:21.626Z,99643.34
2022-08-18T00:34:49.163Z,99641.34
2022-08-18T00:37:17.314Z,99639.84
2022-08-18T00:39:46.596Z,99636.41
2022-08-18T00:42:28.172Z,99631.16
2022-08-18T00:45:00.815Z,99632.06
2022-08-18T00:47:41.932Z,99629.81
2022-08-18T00:50:20.326Z,99631.81
2022-08-18T00:52:55.415Z,99629.53
2022-08-18T00:55:23.330Z,99628.88
2022-08-18T00:57:52.705Z,99626.34
2022-08-18T01:00:21.143Z,99627.16
2022-08-18T01:02:52.822Z,99617.81
2022-08-18T01:05:25.011Z,99622.72
2022-08-18T01:07:52.794Z,99620.38
2022-08-18T01:10:22.493Z,99623.53
2022-08-18T01:12:51.939Z,99622.94
2022-08-18T01:15:27.778Z,99626.19
2022-08-18T01:18:16.262Z,99625.69
2022-08-18T01:21:06.255Z,99625.09
2022-08-18T01:23:36.923Z,99626.72
2022-08-18T01:26:04.206Z,99628.06
2022-08-18T01:28:33.713Z,99617.28
2022-08-18T01:31:02.734Z,99620.88
2022-08-18T01:33:32.892Z,99624.41
2022-08-18T01:36:03.518Z,99631.47
2022-08-18T01:38:32.028Z,99629.25
2022-08-18T01:41:28.984Z,99627.84
2022-08-18T01:43:49.701Z,99629.78
2022-08-18T01:46:19.886Z,99631.19
2022-08-18T01:48:48.252Z,99630.38
2022-08-18T01:51:17.835Z,99628.50
2022-08-18T01:53:46.142Z,99628.38
2022-08-18T01:56:17.569Z,99630.88
2022-08-18T01:58:47.639Z,99632.56
2022-08-18T02:01:15.317Z,99642.84
2022-08-18T02:04:02.550Z,99639.13
2022-08-18T02:06:46.416Z,99647.47
2022-08-18T02:09:15.560Z,99647.78
2022-08-18T02:11:56.145Z,99647.44
2022-08-18T02:14:25.042Z,99641.72
2022-08-18T02:17:01.690Z,99647.78
2022-08-18T02:19:34.165Z,99653.75
2022-08-18T02:22:02.720Z,99653.28
2022-08-18T02:24:30.414Z,99653.03
2022-08-18T02:26:59.338Z,99642.16
2022-08-18T02:29:26.864Z,99636.50
2022-08-18T02:31:54.477Z,99642.84
2022-08-18T02:34:25.441Z,99628.56
2022-08-18T02:36:53.188Z,99622.81
2022-08-18T02:39:21.369Z,99630.09
2022-08-18T02:41:48.903Z,99624.69
2022-08-18T02:44:17.730Z,99624.13
2022-08-18T02:46:45.240Z,99623.38
2022-08-18T02:49:13.155Z,99619.66
2022-08-18T02:51:40.717Z,99617.91
2022-08-18T02:54:11.019Z,99622.47
2022-08-18T02:56:40.960Z,99619.69
2022-08-18T02:59:11.756Z,99628.13
2022-08-18T03:01:43.161Z,99631.84
2022-08-18T03:04:14.168Z,99626.91
2022-08-18T03:06:42.274Z,99625.66
2022-08-18T03:09:12.767Z,99624.97
2022-08-18T03:11:40.750Z,99628.13
2022-08-18T03:14:11.952Z,99622.25
2022-08-18T03:16:52.872Z,99629.97
2022-08-18T03:19:23.690Z,99630.16
2022-08-18T03:21:51.375Z,99624.69
2022-08-18T03:24:22.898Z,99624.09
2022-08-18T03:26:52.651Z,99621.84
2022-08-18T03:29:20.765Z,99623.44
2022-08-18T03:31:50.178Z,99623.63
2022-08-18T03:34:20.677Z,99614.72
2022-08-18T03:36:49.862Z,99623.16
2022-08-18T03:39:17.989Z,99624.31
2022-08-18T03:41:58.141Z,99622.53
2022-08-18T03:44:29.109Z,99626.06
2022-08-18T03:46:58.303Z,99618.31
2022-08-18T03:49:26.728Z,99616.31
2022-08-18T03:51:54.467Z,99612.69
2022-08-18T03:54:22.067Z,99622.88
2022-08-18T03:56:50.285Z,99629.06
2022-08-18T03:59:20.421Z,99633.56
2022-08-18T04:01:49.438Z,99636.19
2022-08-18T04:04:20.225Z,99636.78
2022-08-18T04:06:51.134Z,99631.03
2022-08-18T04:09:20.571Z,99637.75
2022-08-18T04:11:49.023Z,99636.44
2022-08-18T04:14:19.699Z,99642.75
2022-08-18T04:16:48.929Z,99654.22
2022-08-18T04:19:26.771Z,99636.94
2022-08-18T04:21:56.461Z,99645.72
2022-08-18T04:24:25.742Z,99649.72
2022-08-18T04:26:53.268Z,99652.97
2022-08-18T04:29:21.945Z,99648.38
2022-08-18T04:31:50.134Z,99648.97
2022-08-18T04:34:20.356Z,99650.69
2022-08-18T04:36:47.877Z,99661.47
2022-08-18T04:39:15.740Z,99658.66
2022-08-18T04:41:44.656Z,99663.22
2022-08-18T04:44:13.854Z,99668.88
2022-08-18T04:46:42.585Z,99672.16
2022-08-18T04:49:11.697Z,99673.97
2022-08-18T04:52:26.949Z,99665.72
2022-08-18T04:54:30.455Z,99672.03
2022-08-18T04:56:58.136Z,99668.72
2022-08-18T04:59:25.897Z,99665.22
2022-08-18T05:01:53.431Z,99666.25
2022-08-18T05:04:21.196Z,99672.09
2022-08-18T05:06:51.225Z,99674.72
2022-08-18T05:09:22.991Z,99670.94
2022-08-18T05:11:51.562Z,99672.91
2022-08-18T05:14:20.054Z,99670.47
2022-08-18T05:16:49.577Z,99680.22
2022-08-18T05:19:22.034Z,99685.41
2022-08-18T05:21:53.321Z,99683.13
2022-08-18T05:24:29.500Z,99674.44
2022-08-18T05:27:00.090Z,99676.13
2022-08-18T05:29:27.758Z,99679.75
2022-08-18T05:32:03.530Z,99683.50
2022-08-18T05:34:31.105Z,99675.66
2022-08-18T05:37:06.237Z,99677.31
2022-08-18T05:39:39.780Z,99672.97
2022-08-18T05:42:10.010Z,99679.97
2022-08-18T05:44:41.271Z,99675.66
2022-08-18T05:47:12.837Z,99678.25
2022-08-18T05:49:41.039Z,99672.03
2022-08-18T05:52:14.943Z,99673.41
2022-08-18T05:55:04.414Z,99675.81
2022-08-18T05:57:38.777Z,99671.81
2022-08-18T06:00:10.253Z,99683.91
2022-08-18T06:02:45.919Z,99681.22
2022-08-18T06:05:16.681Z,99682.78
2022-08-18T06:07:51.219Z,99676.91
2022-08-18T06:10:19.046Z,99679.19
2022-08-18T06:12:49.146Z,99676.81
2022-08-18T06:15:25.125Z,99684.16
2022-08-18T06:18:11.910Z,99693.50
2022-08-18T06:20:54.504Z,99692.66
2022-08-18T06:23:29.822Z,99689.38
2022-08-18T06:26:04.834Z,99708.59
2022-08-18T06:28:45.109Z,99699.16
2022-08-18T06:31:18.229Z,99707.19
2022-08-18T06:33:51.275Z,99705.28
2022-08-18T06:36:24.012Z,99706.09
2022-08-18T06:39:04.435Z,99717.50
2022-08-18T06:41:42.914Z,99714.22
2022-08-18T06:44:15.314Z,99718.00
2022-08-18T06:46:46.894Z,99717.28
2022-08-18T06:49:22.917Z,99719.94
2022-08-18T06:51:50.413Z,99729.47
2022-08-18T06:54:30.577Z,99726.56
2022-08-18T06:56:59.250Z,99727.47
2022-08-18T06:59:28.731Z,99729.66
2022-08-18T07:02:01.530Z,99727.25
2022-08-18T07:04:45.701Z,99737.16
2022-08-18T07:07:21.427Z,99739.56
2022-08-18T07:09:50.543Z,99726.66
2022-08-18T07:12:26.702Z,99735.56
2022-08-18T07:15:00.227Z,99732.81
2022-08-18T07:17:43.657Z,99733.50
2022-08-18T07:20:20.939Z,99736.94
2022-08-18T07:22:57.294Z,99750.41
2022-08-18T07:25:31.986Z,99741.25
2022-08-18T07:28:01.838Z,99738.06
2022-08-18T07:30:33.635Z,99741.47
2022-08-18T07:33:06.193Z,99732.69
2022-08-18T07:35:37.483Z,99744.84
2022-08-18T07:38:40.974Z,99743.38
2022-08-18T07:41:01.267Z,99742.84
2022-08-18T07:43:37.367Z,99739.59
2022-08-18T07:46:11.804Z,99746.88
2022-08-18T07:48:39.779Z,99742.81
2022-08-18T07:51:16.509Z,99737.06
2022-08-18T07:53:56.102Z,99739.72
2022-08-18T07:56:34.226Z,99735.19
2022-08-18T07:59:05.978Z,99724.91
2022-08-18T08:04:26.150Z,99731.84
2022-08-18T08:07:23.059Z,99721.69
2022-08-18T08:09:51.737Z,99731.63
2022-08-18T08:12:26.286Z,99743.06
2022-08-18T08:15:01.846Z,99737.91
2022-08-18T08:17:33.558Z,99732.34
2022-08-18T08:20:17.694Z,99729.84
2022-08-18T08:22:57.077Z,99729.63
2022-08-18T08:25:45.925Z,99724.03
2022-08-18T08:28:25.502Z,99724.50
2022-08-18T08:31:13.573Z,99712.84
2022-08-18T08:33:50.361Z,99725.97
2022-08-18T08:36:22.499Z,99723.03
2022-08-18T08:38:53.574Z,99736.97
2022-08-18T08:41:28.087Z,99735.84
2022-08-18T08:44:03.772Z,99739.22
2022-08-18T08:46:35.946Z,99748.56
2022-08-18T08:49:08.658Z,99752.09
2022-08-18T08:51:40.994Z,99746.94
2022-08-18T08:54:13.678Z,99752.38
2022-08-18T08:56:45.268Z,99755.06
2022-08-18T08:59:16.635Z,99759.19
2022-08-18T09:01:49.324Z,99761.91
2022-08-18T09:04:24.638Z,99755.31
2022-08-18T09:07:01.606Z,99751.19
2022-08-18T09:09:45.528Z,99754.41
2022-08-18T09:12:29.016Z,99752.53
2022-08-18T09:15:08.513Z,99750.75
2022-08-18T09:17:59.171Z,99744.75
2022-08-18T09:20:49.703Z,99759.19
2022-08-18T09:23:19.973Z,99757.00
2022-08-18T09:25:50.451Z,99752.00
2022-08-18T09:28:19.945Z,99750.41
2022-08-18T09:30:55.152Z,99750.69
2022-08-18T09:33:31.913Z,99741.91
2022-08-18T09:36:20.315Z,99743.16
2022-08-18T09:39:08.663Z,99745.00
2022-08-18T09:41:45.624Z,99751.09
2022-08-18T09:44:55.589Z,99759.81
2022-08-18T09:48:00.482Z,99757.59
2022-08-18T09:51:01.482Z,99767.78
2022-08-18T09:53:39.780Z,99767.03
2022-08-18T09:56:07.354Z,99770.13
2022-08-18T09:59:09.803Z,99780.28
2022-08-18T10:01:41.333Z,99776.69
2022-08-18T10:04:29.653Z,99767.50
2022-08-18T10:09:58.646Z,99777.25
2022-08-18T10:12:37.386Z,99779.19
2022-08-18T10:15:33.556Z,99784.88
2022-08-18T10:18:27.417Z,99788.47
2022-08-18T10:21:01.767Z,99784.47
2022-08-18T10:23:58.189Z,99775.81
2022-08-18T10:27:09.158Z,99776.09
2022-08-18T10:29:56.445Z,99780.91
2022-08-18T10:32:52.279Z,99779.84
2022-08-18T10:35:57.634Z,99781.19
2022-08-18T10:38:49.681Z,99783.13
2022-08-18T10:41:22.730Z,99786.31
2022-08-18T10:43:55.593Z,99786.25
2022-08-18T10:46:31.865Z,99782.25
2022-08-18T10:49:06.852Z,99780.97
2022-08-18T10:51:59.165Z,99786.91
2022-08-18T10:54:51.073Z,99792.84
2022-08-18T10:57:47.809Z,99783.66
2022-08-18T11:00:19.690Z,99787.09
2022-08-18T11:03:29.943Z,99781.69
2022-08-18T11:05:51.299Z,99777.25
2022-08-18T11:08:21.905Z,99784.13
2022-08-18T11:11:24.907Z,99779.91
2022-08-18T11:13:47.978Z,99780.28
2022-08-18T11:16:25.664Z,99776.75
2022-08-18T11:18:58.902Z,99768.31
2022-08-18T11:21:33.008Z,99768.34
2022-08-18T11:24:15.194Z,99760.44
2022-08-18T11:26:53.172Z,99770.63
2022-08-18T11:29:26.756Z,99769.75
2022-08-18T11:32:02.136Z,99770.00
2022-08-18T11:34:38.654Z,99765.31
2022-08-18T11:37:25.480Z,99753.53
2022-08-18T11:39:54.545Z,99760.53
2022-08-18T11:42:29.157Z,99753.97
2022-08-18T11:45:04.670Z,99739.00
2022-08-18T11:47:32.259Z,99743.28
2022-08-18T11:50:09.894Z,99737.25
2022-08-18T11:52:49.329Z,99741.38
2022-08-18T11:55:29.854Z,99743.56
2022-08-18T11:58:00.263Z,99747.06
2022-08-18T12:00:57.253Z,99748.88
2022-08-18T12:03:32.805Z,99738.28
2022-08-18T12:06:20.308Z,99748.44
2022-08-18T12:08:58.162Z,99741.78
2022-08-18T12:11:29.073Z,99737.69
2022-08-18T12:16:54.388Z,99739.81
2022-08-18T12:19:24.373Z,99737.50
2022-08-18T12:21:55.532Z,99745.09
2022-08-18T12:27:21.396Z,99731.22
2022-08-18T12:29:50.222Z,99727.75
2022-08-18T12:32:52.578Z,99729.63
2022-08-18T12:35:09.408Z,99736.00
2022-08-18T12:40:29.500Z,99717.88
2022-08-18T12:42:57.812Z,99714.28
2022-08-18T12:45:27.271Z,99701.56
2022-08-18T12:47:55.300Z,99695.97
2022-08-18T12:53:12.237Z,99704.09
2022-08-18T12:58:30.205Z,99707.13
2022-08-18T13:00:58.455Z,99709.75
2022-08-18T13:06:13.884Z,99715.31
2022-08-18T13:08:49.880Z,99716.94
2022-08-18T13:11:23.833Z,99714.56
2022-08-18T13:13:56.094Z,99712.00
2022-08-18T13:16:38.873Z,99715.09
2022-08-18T13:19:13.250Z,99720.09
2022-08-18T13:21:43.043Z,99725.38
2022-08-18T13:24:12.921Z,99729.09
2022-08-18T13:26:42.794Z,99723.72
2022-08-18T13:29:15.328Z,99720.59
2022-08-18T13:31:57.608Z,99717.94
2022-08-18T13:34:27.449Z,99720.03
2022-08-18T13:36:57.427Z,99716.84
2022-08-18T13:39:33.722Z,99707.13
2022-08-18T13:42:26.839Z,99698.72
2022-08-18T13:44:52.846Z,99701.47
2022-08-18T13:47:21.126Z,99693.25
2022-08-18T13:49:58.110Z,99698.13
2022-08-18T13:52:34.949Z,99702.09
2022-08-18T13:55:11.875Z,99695.38
2022-08-18T13:57:48.115Z,99689.91
2022-08-18T14:00:27.714Z,99687.34
2022-08-18T14:03:03.094Z,99687.84
2022-08-18T14:05:36.804Z,99685.19
2022-08-18T14:08:19.915Z,99681.91
2022-08-18T14:10:50.617Z,99687.25
2022-08-18T14:13:20.737Z,99685.09
2022-08-18T14:15:53.818Z,99687.31
2022-08-18T14:18:22.671Z,99689.41
2022-08-18T14:21:14.789Z,99674.75
2022-08-18T14:24:10.244Z,99676.88
2022-08-18T14:26:50.399Z,99672.81
2022-08-18T14:29:46.153Z,99662.19
2022-08-18T14:32:07.083Z,99654.75
2022-08-18T14:34:34.884Z,99655.66
2022-08-18T14:37:03.682Z,99655.13
2022-08-18T14:39:31.253Z,99640.91
2022-08-18T14:42:03.102Z,99645.31
2022-08-18T14:44:32.539Z,99656.31
2022-08-18T14:47:00.550Z,99649.91
2022-08-18T14:49:31.075Z,99647.97
2022-08-18T14:51:59.949Z,99648.63
2022-08-18T14:54:30.107Z,99644.97
2022-08-18T14:57:01.612Z,99643.28
2022-08-18T14:59:34.528Z,99646.09
2022-08-18T15:02:05.952Z,99646.09
2022-08-18T15:04:53.250Z,99648.47
2022-08-18T15:07:24.387Z,99652.00
2022-08-18T15:09:51.887Z,99662.50
2022-08-18T15:12:41.098Z,99669.25
2022-08-18T15:15:12.946Z,99669.88
2022-08-18T15:17:45.420Z,99671.00
2022-08-18T15:20:18.105Z,99658.09
2022-08-18T15:23:04.782Z,99651.63
2022-08-18T15:25:45.365Z,99666.50
2022-08-18T15:28:17.544Z,99666.22
2022-08-18T15:30:51.073Z,99662.22
2022-08-18T15:33:23.673Z,99665.16
2022-08-18T15:35:52.359Z,99660.66
2022-08-18T15:38:20.938Z,99670.88
2022-08-18T15:40:57.145Z,99676.34
2022-08-18T15:43:31.237Z,99673.53
2022-08-18T15:45:59.716Z,99673.69
2022-08-18T15:48:29.093Z,99661.78
2022-08-18T15:50:56.947Z,99661.41
2022-08-18T15:53:29.730Z,99662.13
2022-08-18T15:55:58.266Z,99657.53
2022-08-18T15:58:32.996Z,99654.88
2022-08-18T16:01:00.556Z,99648.38
2022-08-18T16:03:29.013Z,99657.81
2022-08-18T16:05:56.512Z,99654.78
2022-08-18T16:08:26.270Z,99654.53
2022-08-18T16:10:54.692Z,99658.78
2022-08-18T16:13:22.798Z,99649.88
2022-08-18T16:15:52.283Z,99645.63
2022-08-18T16:18:21.826Z,99653.47
2022-08-18T16:20:52.771Z,99656.75
2022-08-18T16:23:24.423Z,99657.22
2022-08-18T16:25:51.973Z,99646.44
2022-08-18T16:28:19.555Z,99651.72
2022-08-18T16:30:47.726Z,99652.13
2022-08-18T16:33:16.865Z,99656.25
2022-08-18T16:35:45.263Z,99656.06
2022-08-18T16:38:13.738Z,99658.97
2022-08-18T16:40:41.298Z,99650.25
2022-08-18T16:43:08.892Z,99658.25
2022-08-18T16:45:37.965Z,99655.38
2022-08-18T16:48:07.987Z,99652.44
2022-08-18T16:50:37.608Z,99651.03
2022-08-18T16:53:05.637Z,99652.41
2022-08-18T16:55:34.011Z,99643.75
2022-08-18T16:58:18.782Z,99647.66
2022-08-18T17:01:04.057Z,99642.84
2022-08-18T17:03:49.094Z,99633.81
2022-08-18T17:06:19.486Z,99631.28
2022-08-18T17:08:47.277Z,99625.44
2022-08-18T17:11:17.411Z,99629.81
2022-08-18T17:13:45.706Z,99628.00
2022-08-18T17:16:13.731Z,99623.19
2022-08-18T17:18:41.798Z,99619.66
2022-08-18T17:21:13.089Z,99618.00
2022-08-18T17:23:42.387Z,99621.44
2022-08-18T17:26:16.468Z,99629.13
2022-08-18T17:28:50.472Z,99638.47
2022-08-18T17:31:21.044Z,99642.97
2022-08-18T17:33:48.904Z,99639.72
2022-08-18T17:36:22.204Z,99636.09
2022-08-18T17:38:54.024Z,99629.41
2022-08-18T17:41:23.542Z,99631.00
2022-08-18T17:43:52.241Z,99627.50
2022-08-18T17:46:25.870Z,99629.75
2022-08-18T17:48:56.401Z,99636.75
2022-08-18T17:51:34.938Z,99643.69
2022-08-18T17:54:10.113Z,99640.59
2022-08-18T17:56:40.006Z,99632.22
2022-08-18T17:59:50.854Z,99640.94
2022-08-18T18:02:28.800Z,99637.97
2022-08-18T18:04:58.734Z,99640.72
2022-08-18T18:07:28.189Z,99641.84
2022-08-18T18:10:08.575Z,99641.38
2022-08-18T18:12:38.158Z,99638.69
2022-08-18T18:15:08.385Z,99639.19
2022-08-18T18:17:38.277Z,99646.63
2022-08-18T18:20:16.522Z,99642.56
2022-08-18T18:22:45.607Z,99651.50
2022-08-18T18:25:34.639Z,99645.53
2022-08-18T18:28:02.438Z,99643.75
2022-08-18T18:30:31.817Z,99652.25
2022-08-18T18:33:02.562Z,99650.34
2022-08-18T18:35:34.124Z,99648.16
2022-08-18T18:38:03.406Z,99647.91
2022-08-18T18:40:35.671Z,99649.81
2022-08-18T18:43:24.786Z,99652.84
2022-08-18T18:46:10.212Z,99655.31
2022-08-18T18:48:52.038Z,99650.41
2022-08-18T18:51:33.778Z,99656.66
2022-08-18T18:54:12.715Z,99655.56
2022-08-18T18:56:45.560Z,99666.13
2022-08-18T18:59:20.373Z,99661.81
2022-08-18T19:01:54.145Z,99663.72
2022-08-18T19:04:27.074Z,99665.03
2022-08-18T19:06:59.614Z,99666.38
2022-08-18T19:09:32.507Z,99663.41
2022-08-18T19:12:09.642Z,99672.38
2022-08-18T19:14:40.431Z,99672.91
2022-08-18T19:17:13.334Z,99672.63
2022-08-18T19:19:44.534Z,99672.03
2022-08-18T19:22:19.042Z,99671.47
2022-08-18T19:24:52.391Z,99677.97
2022-08-18T19:27:29.456Z,99674.59
2022-08-18T19:30:00.551Z,99674.22
2022-08-18T19:32:36.153Z,99661.72
2022-08-18T19:35:12.148Z,99664.88
2022-08-18T19:38:01.999Z,99674.03
2022-08-18T19:40:38.186Z,99670.47
2022-08-18T19:43:12.505Z,99676.88
2022-08-18T19:45:47.632Z,99675.81
2022-08-18T19:48:20.294Z,99674.41
2022-08-18T19:50:52.445Z,99670.59
2022-08-18T19:53:40.112Z,99680.50
2022-08-18T19:56:21.473Z,99670.06
2022-08-18T19:59:25.025Z,99673.84
2022-08-18T20:02:02.802Z,99669.72
2022-08-18T20:04:43.419Z,99671.81
2022-08-18T20:07:47.034Z,99673.06
2022-08-18T20:10:32.660Z,99678.41
2022-08-18T20:13:13.661Z,99679.16
2022-08-18T20:16:01.312Z,99675.91
2022-08-18T20:18:35.412Z,99685.34
2022-08-18T20:21:39.816Z,99689.72
2022-08-18T20:24:30.103Z,99686.28
2022-08-18T20:27:15.021Z,99690.91
2022-08-18T20:29:48.622Z,99685.75
2022-08-18T20:32:21.345Z,99686.41
2022-08-18T20:34:51.973Z,99688.09
2022-08-18T20:37:25.410Z,99690.31
2022-08-18T20:39:56.286Z,99680.13
2022-08-18T20:42:43.526Z,99689.38
2022-08-18T20:45:24.946Z,99684.38
2022-08-18T20:48:16.851Z,99683.44
2022-08-18T20:50:57.451Z,99684.00
2022-08-18T20:53:56.969Z,99690.25
2022-08-18T20:56:32.740Z,99690.66
2022-08-18T20:59:18.225Z,99700.97
2022-08-18T21:01:57.602Z,99693.53
2022-08-18T21:04:42.927Z,99696.22
2022-08-18T21:07:36.987Z,99699.34
2022-08-18T21:10:12.976Z,99702.06
2022-08-18T21:12:51.618Z,99709.75
2022-08-18T21:15:24.550Z,99715.09
2022-08-18T21:18:03.737Z,99714.28
2022-08-18T21:20:32.353Z,99709.94
2022-08-18T21:23:08.213Z,99714.00
2022-08-18T21:25:36.075Z,99702.13
2022-08-18T21:28:06.021Z,99705.00
2022-08-18T21:30:34.306Z,99704.50
2022-08-18T21:33:01.957Z,99706.53
2022-08-18T21:35:32.914Z,99713.66
2022-08-18T21:38:02.751Z,99717.19
2022-08-18T21:40:41.021Z,99713.25
2022-08-18T21:43:09.494Z,99714.00
2022-08-18T21:45:47.256Z,99715.06
2022-08-18T21:48:15.306Z,99713.63
2022-08-18T21:50:50.998Z,99716.22
2022-08-18T21:53:21.929Z,99717.72
2022-08-18T21:55:52.278Z,99716.97
2022-08-18T21:58:32.679Z,99725.41
2022-08-18T22:01:20.960Z,99727.00
2022-08-18T22:03:54.436Z,99733.88
2022-08-18T22:06:28.699Z,99736.63
2022-08-18T22:09:20.364Z,99742.00
2022-08-18T22:12:07.130Z,99738.88
2022-08-18T22:14:54.703Z,99743.19
2022-08-18T22:17:28.906Z,99729.38
2022-08-18T22:19:57.583Z,99730.78
2022-08-18T22:22:42.577Z,99721.03
2022-08-18T22:25:12.906Z,99723.63
2022-08-18T22:27:41.730Z,99729.88
2022-08-18T22:30:09.849Z,99728.22
2022-08-18T22:32:38.888Z,99724.38
2022-08-18T22:35:09.319Z,99720.03
2022-08-18T22:37:40.936Z,99727.25
2022-08-18T22:40:10.982Z,99719.72
2022-08-18T22:42:39.100Z,99715.69
2022-08-18T22:45:13.383Z,99709.41
2022-08-18T22:47:43.784Z,99706.53
2022-08-18T22:50:13.590Z,99707.06
2022-08-18T22:52:44.525Z,99716.69
2022-08-18T22:55:13.741Z,99717.91
2022-08-18T22:57:42.998Z,99723.13
2022-08-18T23:00:15.412Z,99720.34
2022-08-18T23:02:43.222Z,99725.16
2022-08-18T23:05:11.985Z,99735.28
2022-08-18T23:07:39.573Z,99741.06
2022-08-18T23:10:13.603Z,99738.94
2022-08-18T23:12:42.574Z,99733.81
2022-08-18T23:15:12.066Z,99742.69
2022-08-18T23:17:40.551Z,99742.13
2022-08-18T23:20:09.853Z,99739.63
2022-08-18T23:22:39.205Z,99739.81
2022-08-18T23:25:09.480Z,99751.41
2022-08-18T23:27:37.179Z,99743.47
2022-08-18T23:30:05.578Z,99740.63
2022-08-18T23:32:34.473Z,99746.53
2022-08-18T23:35:02.334Z,99754.50
2022-08-18T23:37:31.510Z,99760.50
2022-08-18T23:39:59.126Z,99755.78
2022-08-18T23:42:27.373Z,99762.47
2022-08-18T23:45:03.746Z,99760.47
2022-08-18T23:47:31.297Z,99764.94
2022-08-18T23:50:00.169Z,99767.41
2022-08-18T23:52:27.786Z,99768.72
2022-08-18T23:54:56.462Z,99774.31
2022-08-18T23:57:24.006Z,99770.59
2022-08-18T23:59:51.522Z,99773.28
